Time;durP1;ratioP1;P1;durP2;ratioP2;P2;SDS_P1;SDS_P2;PMS_P1;PMS_P2;Temp;Humidity;BMP_temperature;BMP_pressure;BME280_temperature;BME280_humidity;BME280_pressure;Samples;Min_cycle;Max_cycle;Signal;HPM_P1;HPM_P2
2022/07/11 00:01:51;;;;;;;1.70;0.30;;;17.20;99.90;;;;;;5010393;28;20579;-73
2022/07/11 00:04:16;;;;;;;1.63;0.30;;;17.20;99.90;;;;;;5009282;28;20442;-73
2022/07/11 00:06:42;;;;;;;4.13;0.60;;;17.20;99.90;;;;;;4994148;28;20094;-72
2022/07/11 00:09:08;;;;;;;1.40;0.30;;;17.20;99.90;;;;;;5012411;28;20160;-73
2022/07/11 00:11:33;;;;;;;2.55;0.40;;;17.20;99.90;;;;;;5011101;28;20389;-73
2022/07/11 00:13:59;;;;;;;2.58;0.30;;;17.20;99.90;;;;;;5012286;28;20026;-73
2022/07/11 00:16:24;;;;;;;2.50;0.35;;;17.20;99.90;;;;;;5026670;28;20105;-73
2022/07/11 00:18:50;;;;;;;2.20;0.40;;;17.20;99.90;;;;;;5009213;28;20437;-73
2022/07/11 00:21:16;;;;;;;1.33;0.30;;;17.20;99.90;;;;;;5022240;28;20037;-73
2022/07/11 00:23:41;;;;;;;2.88;0.40;;;17.10;99.90;;;;;;5013134;28;20049;-73
2022/07/11 00:26:07;;;;;;;1.98;0.30;;;17.10;99.90;;;;;;5015910;28;20195;-74
2022/07/11 00:28:32;;;;;;;1.80;0.35;;;17.10;99.90;;;;;;5010925;28;20040;-73
2022/07/11 00:30:58;;;;;;;2.42;0.30;;;17.10;99.90;;;;;;4993824;28;20498;-73
2022/07/11 00:33:24;;;;;;;1.45;0.25;;;17.10;99.90;;;;;;5010326;28;20021;-73
2022/07/11 00:35:49;;;;;;;1.23;0.20;;;17.10;99.90;;;;;;4994571;28;20029;-74
2022/07/11 00:38:15;;;;;;;1.45;0.20;;;17.00;99.90;;;;;;5021034;28;20056;-73
2022/07/11 00:40:41;;;;;;;0.43;0.20;;;17.00;99.90;;;;;;5009836;28;20143;-74
2022/07/11 00:43:07;;;;;;;1.40;0.10;;;17.00;99.90;;;;;;5024635;28;20029;-76
2022/07/11 00:45:32;;;;;;;0.70;0.20;;;17.00;99.90;;;;;;5011205;28;20045;-73
2022/07/11 00:47:58;;;;;;;2.40;0.13;;;17.00;99.90;;;;;;5012711;28;20037;-74
2022/07/11 00:50:27;;;;;;;0.30;0.10;;;17.00;99.90;;;;;;5010567;28;20037;-73
2022/07/11 00:52:55;;;;;;;0.63;0.10;;;17.00;99.90;;;;;;5020846;28;20072;-73
2022/07/11 00:55:21;;;;;;;1.40;0.20;;;17.00;99.90;;;;;;5011448;28;20029;-73
2022/07/11 00:57:50;;;;;;;0.35;0.10;;;17.00;99.90;;;;;;5011014;28;20056;-73
2022/07/11 01:00:17;;;;;;;0.52;0.13;;;17.00;99.90;;;;;;5011364;28;20068;-73
2022/07/11 01:02:43;;;;;;;0.85;0.10;;;17.00;99.90;;;;;;4995486;28;20627;-73
2022/07/11 01:05:08;;;;;;;0.50;0.10;;;16.90;99.90;;;;;;4999678;28;20048;-73
2022/07/11 01:07:34;;;;;;;0.55;0.10;;;16.90;99.90;;;;;;5011600;28;20034;-73
2022/07/11 01:10:00;;;;;;;0.60;0.10;;;16.90;99.90;;;;;;4994583;28;20033;-73
2022/07/11 01:12:26;;;;;;;0.68;0.10;;;16.90;99.90;;;;;;4993656;28;20033;-73
2022/07/11 01:14:53;;;;;;;0.45;0.08;;;16.90;99.90;;;;;;5010479;28;20021;-74
2022/07/11 01:17:19;;;;;;;0.38;0.10;;;16.90;99.90;;;;;;5025857;28;20044;-73
2022/07/11 01:19:45;;;;;;;0.35;0.10;;;17.00;99.90;;;;;;4994503;28;20033;-73
2022/07/11 01:22:13;;;;;;;1.58;0.10;;;16.90;99.90;;;;;;5009778;28;20062;-73
2022/07/11 01:24:39;;;;;;;0.77;0.15;;;16.90;99.90;;;;;;5011168;28;20488;-73
2022/07/11 01:27:05;;;;;;;1.60;0.17;;;16.90;99.90;;;;;;5011256;28;20025;-73
2022/07/11 01:29:31;;;;;;;1.15;0.10;;;16.90;99.90;;;;;;5009435;28;20087;-73
2022/07/11 01:31:56;;;;;;;0.30;0.10;;;16.90;99.90;;;;;;5010552;28;20021;-73
2022/07/11 01:34:22;;;;;;;0.30;0.10;;;16.90;99.90;;;;;;5022434;28;20090;-76
2022/07/11 01:36:48;;;;;;;1.00;0.10;;;16.90;99.90;;;;;;5010854;28;20064;-73
2022/07/11 01:39:14;;;;;;;0.68;0.15;;;16.90;99.90;;;;;;5010465;28;20140;-73
2022/07/11 01:41:39;;;;;;;1.10;0.10;;;16.90;99.90;;;;;;5004962;28;20033;-73
2022/07/11 01:44:05;;;;;;;0.90;0.17;;;16.90;99.90;;;;;;5010596;28;20076;-73
2022/07/11 01:46:31;;;;;;;0.47;0.10;;;16.80;99.90;;;;;;5014001;28;20053;-73
2022/07/11 01:48:57;;;;;;;0.63;0.20;;;16.80;99.90;;;;;;5024284;28;20553;-74
2022/07/11 01:51:24;;;;;;;0.82;0.17;;;16.80;99.90;;;;;;5013419;28;20441;-73
2022/07/11 01:53:52;;;;;;;1.02;0.20;;;16.80;99.90;;;;;;5008688;28;20095;-73
2022/07/11 01:56:17;;;;;;;0.80;0.20;;;16.80;99.90;;;;;;5010097;28;20040;-73
2022/07/11 01:58:43;;;;;;;1.23;0.10;;;16.80;99.90;;;;;;4992502;28;20037;-72
2022/07/11 02:01:09;;;;;;;1.42;0.20;;;16.80;99.90;;;;;;5003158;28;20025;-73
2022/07/11 02:03:34;;;;;;;1.42;0.10;;;16.70;99.90;;;;;;5014695;28;20030;-73
2022/07/11 02:06:00;;;;;;;2.20;0.20;;;16.70;99.90;;;;;;5009725;28;20190;-73
2022/07/11 02:08:27;;;;;;;1.83;0.20;;;16.70;99.90;;;;;;5008282;28;20681;-73
2022/07/11 02:10:52;;;;;;;1.55;0.20;;;16.70;99.90;;;;;;5009609;28;20044;-73
2022/07/11 02:13:20;;;;;;;1.08;0.20;;;16.70;99.90;;;;;;5025799;28;20026;-73
2022/07/11 02:15:47;;;;;;;0.95;0.15;;;16.70;99.90;;;;;;5008194;28;20145;-73
2022/07/11 02:18:13;;;;;;;1.48;0.17;;;16.70;99.90;;;;;;5013745;28;20564;-73
2022/07/11 02:20:41;;;;;;;1.50;0.20;;;16.70;99.90;;;;;;5012733;28;20129;-73
2022/07/11 02:23:08;;;;;;;0.77;0.15;;;16.70;99.90;;;;;;5008158;28;20025;-73
2022/07/11 02:25:38;;;;;;;0.95;0.17;;;16.70;99.90;;;;;;5010088;28;20053;-72
2022/07/11 02:28:08;;;;;;;2.28;0.30;;;16.70;99.90;;;;;;4991673;28;20026;-73
2022/07/11 02:30:34;;;;;;;1.33;0.43;;;16.60;99.90;;;;;;4993352;28;20037;-73
2022/07/11 02:33:00;;;;;;;1.02;0.40;;;16.60;99.90;;;;;;5009461;28;20025;-72
2022/07/11 02:35:26;;;;;;;0.98;0.20;;;16.60;99.90;;;;;;5010285;28;20029;-73
2022/07/11 02:37:52;;;;;;;1.08;0.20;;;16.60;99.90;;;;;;5009254;28;20049;-73
2022/07/11 02:40:17;;;;;;;2.92;0.50;;;16.50;99.90;;;;;;5018904;28;20039;-73
2022/07/11 02:42:43;;;;;;;0.98;0.30;;;16.50;99.90;;;;;;5007648;28;20037;-73
2022/07/11 02:45:09;;;;;;;3.17;0.30;;;16.50;99.90;;;;;;5007906;28;20025;-73
2022/07/11 02:47:38;;;;;;;1.67;0.20;;;16.50;99.90;;;;;;5008018;28;20107;-73
2022/07/11 02:50:07;;;;;;;1.00;0.20;;;16.50;99.90;;;;;;4993884;28;20497;-73
2022/07/11 02:52:33;;;;;;;1.00;0.20;;;16.50;99.90;;;;;;4992440;28;20037;-73
2022/07/11 02:54:59;;;;;;;1.10;0.20;;;16.40;99.90;;;;;;5008717;28;20030;-73
2022/07/11 02:57:24;;;;;;;0.63;0.20;;;16.40;99.90;;;;;;5018353;28;20025;-73
2022/07/11 02:59:50;;;;;;;1.00;0.10;;;16.40;99.90;;;;;;5009375;28;20123;-73
2022/07/11 03:02:15;;;;;;;0.50;0.13;;;16.40;99.90;;;;;;5009571;28;20064;-73
2022/07/11 03:04:41;;;;;;;0.75;0.10;;;16.40;99.90;;;;;;5023448;28;20194;-73
2022/07/11 03:07:07;;;;;;;0.50;0.20;;;16.30;99.90;;;;;;5009918;28;20546;-73
2022/07/11 03:09:33;;;;;;;1.13;0.20;;;16.30;99.90;;;;;;5007718;28;20449;-73
2022/07/11 03:11:58;;;;;;;0.60;0.10;;;16.30;99.90;;;;;;4994208;28;20030;-73
2022/07/11 03:14:24;;;;;;;0.75;0.10;;;16.30;99.90;;;;;;5014350;28;20029;-73
2022/07/11 03:16:50;;;;;;;1.38;0.10;;;16.30;99.90;;;;;;5012406;28;20030;-73
2022/07/11 03:19:16;;;;;;;1.63;0.10;;;16.30;99.90;;;;;;5023180;28;20716;-73
2022/07/11 03:21:41;;;;;;;0.60;0.10;;;16.30;99.90;;;;;;5011942;28;20026;-73
2022/07/11 03:24:07;;;;;;;0.35;0.10;;;16.30;99.90;;;;;;5024469;28;20064;-73
2022/07/11 03:26:33;;;;;;;0.45;0.10;;;16.20;99.90;;;;;;5013268;28;20033;-73
2022/07/11 03:28:58;;;;;;;0.50;0.10;;;16.20;99.90;;;;;;5000753;28;20037;-73
2022/07/11 03:31:24;;;;;;;0.20;0.10;;;16.20;99.90;;;;;;5015025;28;20052;-74
2022/07/11 03:33:50;;;;;;;1.60;0.10;;;16.20;99.90;;;;;;5010584;28;20033;-73
2022/07/11 03:36:15;;;;;;;1.08;0.10;;;16.20;99.90;;;;;;5028265;28;20037;-73
2022/07/11 03:38:41;;;;;;;0.93;0.10;;;16.20;99.90;;;;;;4995731;28;20054;-73
2022/07/11 03:41:07;;;;;;;0.88;0.20;;;16.20;99.90;;;;;;5011673;28;20372;-73
2022/07/11 03:43:32;;;;;;;0.70;0.15;;;16.10;99.90;;;;;;5012726;28;20018;-73
2022/07/11 03:45:58;;;;;;;1.00;0.10;;;16.10;99.90;;;;;;5005151;28;20038;-73
2022/07/11 03:48:24;;;;;;;0.50;0.20;;;16.10;99.90;;;;;;4996676;28;20061;-73
2022/07/11 03:50:50;;;;;;;0.98;0.10;;;16.10;99.90;;;;;;5010792;28;20033;-72
2022/07/11 03:53:16;;;;;;;1.00;0.20;;;16.10;99.90;;;;;;5012819;28;20044;-73
2022/07/11 03:55:41;;;;;;;0.60;0.20;;;16.10;99.90;;;;;;5011623;28;20033;-73
2022/07/11 03:58:07;;;;;;;0.25;0.10;;;16.10;99.90;;;;;;4994220;28;20152;-73
2022/07/11 04:00:33;;;;;;;0.35;0.20;;;16.10;99.90;;;;;;5009149;28;20073;-73
2022/07/11 04:02:59;;;;;;;0.70;0.10;;;16.10;99.90;;;;;;4999577;28;20101;-73
2022/07/11 04:05:25;;;;;;;0.45;0.10;;;16.10;99.90;;;;;;5011918;28;20090;-74
2022/07/11 04:07:51;;;;;;;0.20;0.10;;;16.10;99.90;;;;;;5011853;28;20040;-73
2022/07/11 04:10:17;;;;;;;0.40;0.10;;;16.20;99.90;;;;;;4993211;28;20037;-73
2022/07/11 04:12:44;;;;;;;0.43;0.10;;;16.10;99.90;;;;;;5012462;28;20033;-73
2022/07/11 04:15:10;;;;;;;0.22;0.10;;;16.20;99.90;;;;;;5010550;28;20478;-74
2022/07/11 04:17:37;;;;;;;0.47;0.10;;;16.20;99.90;;;;;;5005562;28;20038;-73
2022/07/11 04:20:03;;;;;;;1.20;0.10;;;16.20;99.90;;;;;;5024150;28;20040;-73
2022/07/11 04:22:29;;;;;;;0.50;0.20;;;16.20;99.90;;;;;;5013102;28;20666;-73
2022/07/11 04:24:55;;;;;;;1.70;0.10;;;16.20;99.90;;;;;;5009396;28;20041;-73
2022/07/11 04:27:20;;;;;;;0.30;0.10;;;16.20;99.90;;;;;;5008303;28;20033;-72
2022/07/11 04:29:46;;;;;;;0.28;0.10;;;16.20;99.90;;;;;;5004951;28;20054;-73
2022/07/11 04:32:12;;;;;;;0.38;0.10;;;16.20;99.90;;;;;;5009434;28;20030;-73
2022/07/11 04:34:37;;;;;;;0.28;0.10;;;16.20;99.90;;;;;;5010739;28;20117;-73
2022/07/11 04:37:04;;;;;;;0.95;0.10;;;16.20;99.90;;;;;;5010570;28;20108;-73
2022/07/11 04:39:32;;;;;;;0.80;0.10;;;16.20;99.90;;;;;;5009438;28;20375;-73
2022/07/11 04:41:58;;;;;;;1.50;0.10;;;16.30;99.90;;;;;;5010107;28;20482;-73
2022/07/11 04:44:24;;;;;;;0.40;0.10;;;16.30;99.90;;;;;;5014797;28;20034;-73
2022/07/11 04:46:50;;;;;;;1.75;0.13;;;16.30;99.90;;;;;;5009946;28;20667;-73
2022/07/11 04:49:15;;;;;;;0.45;0.20;;;16.30;99.90;;;;;;5009368;28;20036;-73
2022/07/11 04:51:41;;;;;;;0.50;0.10;;;16.30;99.90;;;;;;5021838;28;20424;-73
2022/07/11 04:54:08;;;;;;;0.10;0.10;;;16.30;99.90;;;;;;5009005;28;20429;-74
2022/07/11 04:56:34;;;;;;;0.22;0.10;;;16.40;99.90;;;;;;5010541;28;20048;-73
2022/07/11 04:59:00;;;;;;;0.70;0.10;;;16.40;99.90;;;;;;5024488;28;20502;-73
2022/07/11 05:01:26;;;;;;;0.47;0.10;;;16.40;99.90;;;;;;5026017;28;20057;-73
2022/07/11 05:03:51;;;;;;;0.60;0.35;;;16.40;99.90;;;;;;5009322;28;20136;-73
2022/07/11 05:06:17;;;;;;;0.50;0.10;;;16.40;99.90;;;;;;5008282;28;20045;-73
2022/07/11 05:08:43;;;;;;;0.47;0.03;;;16.40;99.90;;;;;;5009152;28;20099;-73
2022/07/11 05:11:09;;;;;;;2.40;0.10;;;16.50;99.90;;;;;;5024513;28;20033;-73
2022/07/11 05:13:35;;;;;;;0.82;0.10;;;16.50;99.90;;;;;;5008984;28;20082;-73
2022/07/11 05:16:01;;;;;;;0.40;0.10;;;16.50;99.90;;;;;;5010406;28;20491;-72
2022/07/11 05:18:27;;;;;;;0.93;0.10;;;16.40;99.90;;;;;;5010141;28;20037;-73
2022/07/11 05:20:53;;;;;;;0.20;0.10;;;16.50;99.90;;;;;;5009618;28;20683;-73
2022/07/11 05:23:18;;;;;;;0.30;0.10;;;16.50;99.90;;;;;;5009630;28;20036;-73
2022/07/11 05:25:44;;;;;;;0.30;0.10;;;16.50;99.90;;;;;;5014692;28;20041;-74
2022/07/11 05:28:10;;;;;;;0.45;0.10;;;16.50;99.90;;;;;;5002073;28;20037;-73
2022/07/11 05:30:35;;;;;;;1.02;0.20;;;16.60;99.90;;;;;;5008332;28;20255;-74
2022/07/11 05:33:01;;;;;;;0.80;0.20;;;16.50;99.90;;;;;;4993313;28;20469;-73
2022/07/11 05:35:27;;;;;;;1.27;0.20;;;16.60;99.90;;;;;;5023796;28;22073;-73
2022/07/11 05:37:52;;;;;;;0.28;0.10;;;16.60;99.90;;;;;;5005974;28;20486;-73
2022/07/11 05:40:18;;;;;;;1.33;0.10;;;16.70;99.90;;;;;;5008322;28;20585;-73
2022/07/11 05:42:44;;;;;;;0.30;0.10;;;16.70;99.90;;;;;;5008631;28;20525;-73
2022/07/11 05:45:10;;;;;;;0.43;0.10;;;16.70;99.90;;;;;;5007549;28;20374;-76
2022/07/11 05:47:35;;;;;;;1.63;0.20;;;16.80;99.90;;;;;;5008503;28;20032;-73
2022/07/11 05:50:01;;;;;;;0.80;0.20;;;16.70;99.90;;;;;;5001433;28;20469;-73
2022/07/11 05:52:27;;;;;;;0.93;0.20;;;16.80;99.90;;;;;;5010878;28;20033;-73
2022/07/11 05:54:53;;;;;;;0.52;0.20;;;16.90;99.90;;;;;;5007517;28;20259;-74
2022/07/11 05:57:18;;;;;;;0.43;0.15;;;17.10;99.90;;;;;;5007603;28;20040;-73
2022/07/11 05:59:45;;;;;;;0.77;0.20;;;17.10;99.90;;;;;;4991687;28;20044;-73
2022/07/11 06:02:11;;;;;;;0.47;0.20;;;17.20;99.90;;;;;;5011181;28;20109;-73
2022/07/11 06:04:37;;;;;;;0.85;0.20;;;17.10;99.90;;;;;;5006237;28;20045;-73
2022/07/11 06:07:03;;;;;;;0.40;0.13;;;17.10;99.90;;;;;;5010349;28;20123;-73
2022/07/11 06:09:29;;;;;;;0.52;0.20;;;17.30;99.90;;;;;;5007327;28;20112;-74
2022/07/11 06:11:55;;;;;;;0.60;0.10;;;17.50;99.90;;;;;;5004501;28;20141;-73
2022/07/11 06:14:21;;;;;;;0.95;0.20;;;17.50;99.90;;;;;;4990374;28;20466;-73
2022/07/11 06:16:47;;;;;;;0.40;0.10;;;17.50;99.90;;;;;;5006961;28;20040;-73
2022/07/11 06:19:14;;;;;;;1.58;0.10;;;17.40;99.90;;;;;;5005320;28;20030;-73
2022/07/11 06:21:40;;;;;;;0.20;0.10;;;17.30;99.90;;;;;;5006955;28;20041;-73
2022/07/11 06:24:06;;;;;;;0.57;0.10;;;17.40;99.90;;;;;;5021475;28;20505;-73
2022/07/11 06:26:32;;;;;;;1.48;0.20;;;17.30;99.90;;;;;;5009002;28;20057;-74
2022/07/11 06:28:57;;;;;;;0.52;0.10;;;17.20;99.90;;;;;;5009550;28;20539;-74
2022/07/11 06:31:23;;;;;;;1.23;0.10;;;17.30;99.90;;;;;;5008732;28;20068;-74
2022/07/11 06:33:54;;;;;;;0.80;0.13;;;17.40;99.90;;;;;;5008725;28;20030;-74
2022/07/11 06:36:22;;;;;;;0.52;0.20;;;17.50;99.90;;;;;;5007981;28;20021;-74
2022/07/11 06:38:52;;;;;;;0.68;0.10;;;17.40;99.90;;;;;;5013576;28;20056;-74
2022/07/11 06:41:18;;;;;;;0.40;0.10;;;17.30;99.90;;;;;;5008037;28;20037;-73
2022/07/11 06:43:44;;;;;;;0.73;0.17;;;17.40;99.90;;;;;;5007469;28;20112;-74
2022/07/11 06:46:09;;;;;;;0.40;0.10;;;17.40;99.90;;;;;;5001894;28;20044;-73
2022/07/11 06:48:35;;;;;;;0.98;0.30;;;17.50;99.90;;;;;;5006486;28;20021;-77
2022/07/11 06:51:01;;;;;;;0.73;0.10;;;17.40;99.90;;;;;;5004293;28;20450;-77
2022/07/11 06:53:26;;;;;;;0.65;0.10;;;17.60;99.90;;;;;;5016431;28;20443;-73
2022/07/11 06:55:52;;;;;;;0.65;0.10;;;17.50;99.90;;;;;;5006099;28;20371;-73
2022/07/11 06:58:32;;;;;;;0.80;0.10;;;17.50;99.90;;;;;;5005649;28;20032;-74
2022/07/11 07:01:03;;;;;;;0.90;0.20;;;17.30;99.90;;;;;;5007049;28;20109;-73
2022/07/11 07:03:30;;;;;;;0.50;0.15;;;17.50;99.90;;;;;;5005310;28;23226;-72
2022/07/11 07:05:56;;;;;;;0.35;0.10;;;17.40;99.90;;;;;;5006228;28;20052;-73
2022/07/11 07:08:27;;;;;;;1.02;0.20;;;17.50;99.90;;;;;;5006938;28;20107;-73
2022/07/11 07:10:53;;;;;;;0.20;0.10;;;17.50;99.90;;;;;;5006089;28;20037;-73
2022/07/11 07:13:23;;;;;;;0.60;0.10;;;17.30;99.90;;;;;;5000181;28;20029;-74
2022/07/11 07:15:49;;;;;;;0.25;0.10;;;17.40;99.90;;;;;;5005661;28;20026;-74
2022/07/11 07:18:15;;;;;;;1.33;0.20;;;17.40;99.90;;;;;;5005203;28;20056;-73
2022/07/11 07:20:40;;;;;;;0.68;0.10;;;17.40;99.90;;;;;;5009323;28;20483;-72
2022/07/11 07:23:06;;;;;;;0.82;0.20;;;17.50;99.90;;;;;;4999288;28;20180;-73
2022/07/11 07:25:32;;;;;;;1.65;0.20;;;17.50;99.90;;;;;;5010392;28;20045;-73
2022/07/11 07:27:57;;;;;;;0.63;0.10;;;17.50;99.90;;;;;;5006171;28;20029;-73
2022/07/11 07:30:23;;;;;;;0.32;0.10;;;17.80;99.90;;;;;;5002764;28;20420;-73
2022/07/11 07:32:49;;;;;;;0.28;0.10;;;18.10;99.90;;;;;;5001163;28;20107;-75
2022/07/11 07:35:14;;;;;;;0.43;0.10;;;18.00;99.90;;;;;;5022319;28;20080;-73
2022/07/11 07:37:40;;;;;;;0.22;0.10;;;18.10;99.90;;;;;;4992180;28;20018;-73
2022/07/11 07:40:06;;;;;;;1.13;0.20;;;18.30;99.90;;;;;;5007739;28;20101;-78
2022/07/11 07:42:31;;;;;;;0.70;0.10;;;18.50;99.90;;;;;;5007938;28;20415;-74
2022/07/11 07:44:57;;;;;;;0.50;0.10;;;18.80;99.90;;;;;;5006344;28;20095;-74
2022/07/11 07:47:23;;;;;;;0.43;0.00;;;19.20;99.90;;;;;;5010682;28;20041;-77
2022/07/11 07:49:48;;;;;;;0.43;0.10;;;19.20;99.90;;;;;;4979188;28;20068;-74
2022/07/11 07:52:14;;;;;;;0.22;0.10;;;19.20;99.90;;;;;;5005603;28;20121;-74
2022/07/11 07:54:40;;;;;;;0.52;0.10;;;19.30;99.90;;;;;;5011565;28;20072;-74
2022/07/11 07:57:05;;;;;;;0.00;0.00;;;19.70;99.90;;;;;;5004363;28;20058;-74
2022/07/11 07:59:31;;;;;;;0.47;0.03;;;20.50;99.90;;;;;;5004969;28;20033;-74
2022/07/11 08:01:57;;;;;;;0.55;0.00;;;20.60;99.90;;;;;;5011658;28;20109;-75
2022/07/11 08:04:22;;;;;;;0.50;0.10;;;20.50;99.90;;;;;;4992719;28;20032;-74
2022/07/11 08:06:48;;;;;;;1.38;0.00;;;20.80;99.90;;;;;;4991347;28;20486;-75
2022/07/11 08:09:14;;;;;;;0.15;0.00;;;20.80;99.90;;;;;;5009424;28;20558;-74
2022/07/11 08:11:39;;;;;;;0.20;0.00;;;19.70;99.90;;;;;;4995212;28;20500;-75
2022/07/11 08:14:07;;;;;;;0.57;0.00;;;19.70;99.90;;;;;;5013656;28;20018;-74
2022/07/11 08:16:33;;;;;;;0.15;0.00;;;19.30;99.90;;;;;;5009405;28;20030;-74
2022/07/11 08:19:02;;;;;;;0.00;0.00;;;19.20;99.90;;;;;;5008991;28;20025;-74
2022/07/11 08:21:31;;;;;;;0.10;0.00;;;19.00;99.90;;;;;;5011115;28;20394;-74
2022/07/11 08:23:57;;;;;;;0.10;0.00;;;19.10;99.90;;;;;;5009808;28;22706;-74
2022/07/11 08:26:23;;;;;;;0.10;0.00;;;19.10;99.90;;;;;;5009912;28;20076;-73
2022/07/11 08:28:51;;;;;;;0.30;0.00;;;19.10;99.90;;;;;;5002416;28;20045;-78
2022/07/11 08:31:17;;;;;;;0.20;0.03;;;18.70;99.90;;;;;;4991459;28;20068;-73
2022/07/11 08:33:42;;;;;;;0.30;0.10;;;18.60;99.90;;;;;;5007869;28;20040;-74
2022/07/11 08:36:08;;;;;;;0.10;0.00;;;18.40;99.90;;;;;;4995516;28;20052;-73
2022/07/11 08:38:34;;;;;;;0.20;0.10;;;18.40;99.90;;;;;;5008321;28;20405;-74
2022/07/11 08:40:59;;;;;;;0.10;0.00;;;18.40;99.90;;;;;;5009754;28;20029;-74
2022/07/11 08:43:29;;;;;;;0.13;0.00;;;18.50;99.90;;;;;;4994355;28;20025;-73
2022/07/11 08:45:55;;;;;;;0.20;0.00;;;18.60;99.90;;;;;;4994156;28;20207;-74
2022/07/11 08:48:21;;;;;;;0.10;0.00;;;18.70;99.90;;;;;;5011546;28;20034;-74
2022/07/11 08:50:48;;;;;;;0.20;0.08;;;18.80;99.90;;;;;;5010537;28;20025;-77
2022/07/11 08:53:14;;;;;;;0.43;0.00;;;19.00;99.90;;;;;;5011154;28;20029;-73
2022/07/11 08:55:41;;;;;;;0.95;0.00;;;19.30;99.90;;;;;;5010418;28;20064;-75
2022/07/11 08:58:08;;;;;;;0.43;0.05;;;19.30;99.90;;;;;;5010776;28;20041;-74
2022/07/11 09:00:35;;;;;;;0.45;0.08;;;19.40;99.90;;;;;;5009977;28;20044;-74
2022/07/11 09:03:02;;;;;;;0.30;0.05;;;19.80;99.90;;;;;;5008556;28;20038;-74
2022/07/11 09:05:30;;;;;;;0.52;0.05;;;19.50;99.90;;;;;;5019615;28;20069;-78
2022/07/11 09:07:56;;;;;;;0.65;0.10;;;19.40;99.90;;;;;;5009775;28;20033;-74
2022/07/11 09:10:22;;;;;;;0.38;0.10;;;19.30;99.90;;;;;;5006880;28;20431;-74
2022/07/11 09:13:06;;;;;;;0.35;0.10;;;19.10;99.90;;;;;;5003136;28;20034;-73
2022/07/11 09:15:32;;;;;;;0.10;0.00;;;19.00;99.90;;;;;;4995923;28;20040;-76
2022/07/11 09:17:57;;;;;;;0.65;0.10;;;18.90;99.90;;;;;;5006404;28;20049;-73
2022/07/11 09:20:23;;;;;;;0.30;0.10;;;19.00;99.90;;;;;;5003699;28;20173;-73
2022/07/11 09:25:42;;;;;;;0.00;0.00;;;18.70;99.90;;;;;;5006874;28;20406;-74
2022/07/11 09:28:08;;;;;;;0.10;0.00;;;18.80;99.90;;;;;;4990411;28;22691;-74
2022/07/11 09:30:39;;;;;;;1.75;0.00;;;18.90;99.90;;;;;;5009099;28;20539;-75
2022/07/11 09:33:10;;;;;;;0.30;0.10;;;18.80;99.90;;;;;;5023300;28;20486;-73
2022/07/11 09:35:38;;;;;;;0.20;0.10;;;18.90;99.90;;;;;;5009621;28;20445;-76
2022/07/11 09:38:05;;;;;;;0.45;0.10;;;18.80;99.90;;;;;;5021717;28;20080;-74
2022/07/11 09:40:31;;;;;;;0.17;0.10;;;18.90;99.90;;;;;;4991273;28;20036;-74
2022/07/11 09:42:58;;;;;;;1.08;0.05;;;19.00;99.90;;;;;;5000540;28;20113;-74
2022/07/11 09:45:29;;;;;;;0.00;0.00;;;19.10;99.90;;;;;;5007977;28;20049;-74
2022/07/11 09:48:15;;;;;;;0.00;0.00;;;19.20;99.90;;;;;;5008983;28;20033;-74
2022/07/11 09:50:56;;;;;;;0.28;0.00;;;19.30;99.90;;;;;;5012096;28;20601;-74
2022/07/11 09:53:21;;;;;;;0.10;0.00;;;19.60;99.90;;;;;;5008965;28;20501;-77
2022/07/11 09:55:47;;;;;;;0.22;0.00;;;19.50;99.90;;;;;;5009928;28;20030;-74
2022/07/11 09:58:14;;;;;;;0.05;0.00;;;19.60;99.90;;;;;;5024681;28;20470;-73
2022/07/11 10:00:41;;;;;;;0.10;0.00;;;19.80;99.90;;;;;;4992684;28;20034;-74
2022/07/11 10:03:08;;;;;;;0.30;0.00;;;19.90;99.90;;;;;;5008619;28;20463;-74
2022/07/11 10:05:34;;;;;;;0.10;0.00;;;19.60;99.90;;;;;;5009122;28;20159;-75
2022/07/11 10:08:01;;;;;;;0.32;0.00;;;19.60;99.90;;;;;;5008699;28;20482;-74
2022/07/11 10:10:28;;;;;;;0.10;0.00;;;19.90;99.90;;;;;;5006087;28;20033;-75
2022/07/11 10:12:55;;;;;;;0.10;0.00;;;20.30;99.90;;;;;;5005070;28;20048;-74
2022/07/11 10:15:27;;;;;;;0.10;0.00;;;20.10;99.90;;;;;;5022991;28;20132;-74
2022/07/11 10:17:56;;;;;;;0.55;0.00;;;20.00;99.90;;;;;;5005445;28;20120;-77
2022/07/11 10:20:41;;;;;;;0.10;0.00;;;19.90;99.90;;;;;;5001426;28;20041;-74
2022/07/11 10:23:22;;;;;;;0.20;0.03;;;20.00;99.90;;;;;;5007045;28;20116;-74
2022/07/11 10:26:00;;;;;;;0.20;0.00;;;20.10;99.90;;;;;;5005326;28;22659;-73
2022/07/11 10:28:32;;;;;;;0.10;0.10;;;19.90;99.90;;;;;;5010685;28;20478;-74
2022/07/11 10:31:01;;;;;;;0.05;0.00;;;19.70;99.90;;;;;;5007172;28;20037;-80
2022/07/11 10:33:28;;;;;;;0.40;0.10;;;19.90;99.90;;;;;;5005232;28;20045;-73
2022/07/11 10:35:55;;;;;;;0.10;0.00;;;19.80;99.90;;;;;;5005410;28;20037;-74
2022/07/11 10:38:23;;;;;;;0.73;0.10;;;19.90;99.90;;;;;;5006166;28;20405;-73
2022/07/11 10:40:52;;;;;;;0.50;0.10;;;19.70;99.90;;;;;;5006359;28;20038;-73
2022/07/11 10:43:30;;;;;;;0.32;0.00;;;19.70;99.90;;;;;;4993849;28;20038;-74
2022/07/11 10:45:59;;;;;;;0.25;0.10;;;19.90;99.90;;;;;;5005753;28;20033;-74
2022/07/11 10:48:27;;;;;;;0.20;0.10;;;20.00;99.90;;;;;;4990339;28;20048;-74
2022/07/11 10:51:28;;;;;;;0.30;0.10;;;20.00;99.90;;;;;;4990003;28;20700;-74
2022/07/11 10:53:57;;;;;;;0.00;0.00;;;20.10;99.90;;;;;;4990011;28;20128;-73
2022/07/11 10:56:23;;;;;;;0.30;0.00;;;20.50;99.90;;;;;;5017706;28;20034;-74
2022/07/11 10:59:16;;;;;;;0.13;0.08;;;20.90;99.90;;;;;;5014624;28;20029;-74
2022/07/11 11:02:11;;;;;;;0.10;0.00;;;21.20;99.90;;;;;;5014678;28;20129;-74
2022/07/11 11:04:47;;;;;;;1.17;0.10;;;21.10;99.90;;;;;;5008027;28;20952;-73
2022/07/11 11:07:36;;;;;;;0.68;0.10;;;20.80;99.90;;;;;;5009629;28;20092;-74
2022/07/11 11:10:06;;;;;;;0.30;0.10;;;20.10;99.90;;;;;;5007901;28;20147;-74
2022/07/11 11:13:06;;;;;;;1.10;0.10;;;19.80;99.90;;;;;;4992586;28;20061;-74
2022/07/11 11:15:52;;;;;;;0.40;0.10;;;19.70;99.90;;;;;;5024507;28;20029;-74
2022/07/11 11:18:23;;;;;;;0.50;0.10;;;19.70;99.90;;;;;;4993013;28;20061;-74
2022/07/11 11:21:07;;;;;;;0.30;0.10;;;19.60;99.90;;;;;;5006296;28;20033;-73
2022/07/11 11:23:35;;;;;;;0.10;0.00;;;19.50;99.90;;;;;;5011217;28;20037;-73
2022/07/11 11:26:20;;;;;;;0.25;0.10;;;19.60;99.90;;;;;;5005139;28;20030;-74
2022/07/11 11:29:05;;;;;;;0.20;0.10;;;19.90;99.90;;;;;;5008021;28;20032;-75
2022/07/11 11:31:31;;;;;;;0.82;0.10;;;20.00;99.90;;;;;;5005498;28;20057;-74
2022/07/11 11:33:58;;;;;;;0.63;0.10;;;20.20;99.90;;;;;;5008848;28;20033;-74
2022/07/11 11:36:25;;;;;;;0.63;0.00;;;20.50;99.90;;;;;;5007238;28;20037;-74
2022/07/11 11:38:52;;;;;;;0.88;0.08;;;20.50;99.90;;;;;;5010355;28;20085;-74
2022/07/11 11:41:28;;;;;;;0.30;0.00;;;20.50;99.90;;;;;;5004943;28;20021;-73
2022/07/11 11:43:59;;;;;;;0.15;0.00;;;20.50;99.90;;;;;;5014255;28;20037;-74
2022/07/11 11:46:29;;;;;;;0.10;0.00;;;20.70;99.90;;;;;;5003467;28;20496;-74
2022/07/11 11:48:59;;;;;;;0.13;0.08;;;20.60;99.90;;;;;;5008109;28;20026;-79
2022/07/11 11:51:27;;;;;;;0.00;0.00;;;21.00;99.90;;;;;;5008793;28;20108;-73
2022/07/11 11:53:55;;;;;;;0.35;0.10;;;20.70;99.90;;;;;;5008516;28;20127;-74
2022/07/11 11:56:33;;;;;;;0.90;0.10;;;20.70;99.90;;;;;;5010736;28;20051;-74
2022/07/11 11:59:10;;;;;;;0.57;0.10;;;20.40;99.90;;;;;;5014162;28;20045;-74
2022/07/11 12:01:38;;;;;;;0.30;0.10;;;20.40;99.90;;;;;;5020230;28;20778;-74
2022/07/11 12:04:07;;;;;;;0.10;0.10;;;20.40;99.90;;;;;;5008929;28;20030;-74
2022/07/11 12:06:40;;;;;;;0.50;0.00;;;20.70;99.90;;;;;;5014265;28;20045;-74
2022/07/11 12:09:22;;;;;;;0.40;0.10;;;20.70;99.90;;;;;;5017562;28;20033;-74
2022/07/11 12:14:35;;;;;;;0.20;0.00;;;20.90;99.90;;;;;;5012381;28;20379;-74
2022/07/11 12:17:01;;;;;;;0.00;0.00;;;21.10;99.90;;;;;;5012904;28;20033;-75
2022/07/11 12:19:34;;;;;;;0.10;0.00;;;21.20;99.90;;;;;;5030949;28;20037;-74
2022/07/11 12:22:03;;;;;;;0.10;0.00;;;21.00;99.90;;;;;;5007992;28;20037;-75
2022/07/11 12:24:29;;;;;;;;;;;21.30;99.90;;;;;;4996144;28;20083;-74
2022/07/11 12:26:56;;;;;;;0.50;0.10;;;21.40;99.90;;;;;;5017155;28;19925;-74
2022/07/11 12:29:27;;;;;;;0.80;0.00;;;20.90;99.90;;;;;;5015196;28;20025;-74
2022/07/11 12:31:53;;;;;;;0.00;0.00;;;20.70;99.90;;;;;;5011243;28;20121;-75
2022/07/11 12:34:24;;;;;;;2.13;0.00;;;20.60;99.90;;;;;;5003155;28;20028;-74
2022/07/11 12:36:51;;;;;;;0.25;0.10;;;20.60;99.90;;;;;;5016809;28;20066;-74
2022/07/11 12:39:29;;;;;;;0.10;0.00;;;20.50;99.90;;;;;;5010423;28;20514;-74
2022/07/11 12:41:56;;;;;;;0.13;0.10;;;20.50;99.90;;;;;;5014532;28;20038;-74
2022/07/11 12:47:11;;;;;;;0.20;0.00;;;20.40;99.90;;;;;;5014485;28;20514;-74
2022/07/11 12:49:39;;;;;;;0.43;0.10;;;20.60;99.90;;;;;;4999683;28;20033;-73
2022/07/11 12:52:05;;;;;;;0.30;0.10;;;20.40;99.90;;;;;;4992077;28;20025;-73
2022/07/11 12:54:33;;;;;;;0.22;0.10;;;20.30;99.90;;;;;;5014843;28;20121;-74
2022/07/11 12:57:03;;;;;;;1.63;0.10;;;20.20;99.90;;;;;;4996892;28;20030;-75
2022/07/11 12:59:33;;;;;;;0.65;0.10;;;20.20;99.90;;;;;;5015819;28;20033;-74